sensor_id;sensor_type;location;lat;lon;timestamp;pressure;altitude;pressure_sealevel;temperature;humidity
69060;BME280;56135;37.534;-122.308;2022-09-09T00:02:22;100192.44;;;35.75;23.11
69060;BME280;56135;37.534;-122.308;2022-09-09T00:08:04;100200.16;;;35.65;23.85
69060;BME280;56135;37.534;-122.308;2022-09-09T00:13:02;100193.09;;;35.55;24.55
69060;BME280;56135;37.534;-122.308;2022-09-09T00:21:15;100190.53;;;35.32;25.63
69060;BME280;56135;37.534;-122.308;2022-09-09T00:23:48;100188.56;;;35.26;25.05
69060;BME280;56135;37.534;-122.308;2022-09-09T00:29:19;100185.88;;;35.11;25.14
69060;BME280;56135;37.534;-122.308;2022-09-09T00:31:53;100189.06;;;35.15;22.37
69060;BME280;56135;37.534;-122.308;2022-09-09T00:34:22;100188.44;;;35.13;21.42
69060;BME280;56135;37.534;-122.308;2022-09-09T00:36:51;100193.47;;;35.31;19.21
69060;BME280;56135;37.534;-122.308;2022-09-09T00:42:16;100187.75;;;35.11;19.07
69060;BME280;56135;37.534;-122.308;2022-09-09T00:47:46;100180.66;;;35.16;19.32
69060;BME280;56135;37.534;-122.308;2022-09-09T00:56:09;100186.13;;;34.80;20.06
69060;BME280;56135;37.534;-122.308;2022-09-09T00:58:38;100181.03;;;34.77;20.31
69060;BME280;56135;37.534;-122.308;2022-09-09T01:01:14;100176.22;;;34.64;19.83
69060;BME280;56135;37.534;-122.308;2022-09-09T01:03:54;100176.25;;;34.49;20.39
69060;BME280;56135;37.534;-122.308;2022-09-09T01:06:33;100176.81;;;34.44;21.52
69060;BME280;56135;37.534;-122.308;2022-09-09T01:11:33;100168.19;;;34.32;20.88
69060;BME280;56135;37.534;-122.308;2022-09-09T01:16:45;100172.06;;;34.08;21.10
69060;BME280;56135;37.534;-122.308;2022-09-09T01:19:20;100181.69;;;34.04;21.28
69060;BME280;56135;37.534;-122.308;2022-09-09T01:22:01;100174.28;;;33.89;26.57
69060;BME280;56135;37.534;-122.308;2022-09-09T01:27:27;100176.38;;;32.95;29.26
69060;BME280;56135;37.534;-122.308;2022-09-09T01:29:53;100175.94;;;32.74;29.90
69060;BME280;56135;37.534;-122.308;2022-09-09T01:32:43;100176.34;;;32.55;30.10
69060;BME280;56135;37.534;-122.308;2022-09-09T01:38:06;100177.19;;;31.83;31.65
69060;BME280;56135;37.534;-122.308;2022-09-09T01:40:32;100174.13;;;31.53;32.16
69060;BME280;56135;37.534;-122.308;2022-09-09T01:42:58;100168.31;;;31.39;32.54
69060;BME280;56135;37.534;-122.308;2022-09-09T01:45:25;100174.34;;;31.00;33.38
69060;BME280;56135;37.534;-122.308;2022-09-09T01:47:52;100178.59;;;30.94;33.80
69060;BME280;56135;37.534;-122.308;2022-09-09T01:50:19;100169.69;;;30.76;33.77
69060;BME280;56135;37.534;-122.308;2022-09-09T01:52:47;100173.88;;;30.62;34.41
69060;BME280;56135;37.534;-122.308;2022-09-09T01:55:15;100172.47;;;30.50;34.73
69060;BME280;56135;37.534;-122.308;2022-09-09T02:00:29;100164.44;;;29.87;36.27
69060;BME280;56135;37.534;-122.308;2022-09-09T02:08:20;100165.22;;;28.89;38.94
69060;BME280;56135;37.534;-122.308;2022-09-09T02:10:53;100168.66;;;28.91;39.01
69060;BME280;56135;37.534;-122.308;2022-09-09T02:13:22;100172.50;;;28.61;39.12
69060;BME280;56135;37.534;-122.308;2022-09-09T02:21:10;100166.66;;;28.18;39.64
69060;BME280;56135;37.534;-122.308;2022-09-09T02:23:38;100161.16;;;27.80;40.98
69060;BME280;56135;37.534;-122.308;2022-09-09T02:26:06;100164.78;;;27.61;40.99
69060;BME280;56135;37.534;-122.308;2022-09-09T02:28:34;100165.94;;;27.39;41.54
69060;BME280;56135;37.534;-122.308;2022-09-09T02:31:03;100170.47;;;27.29;41.69
69060;BME280;56135;37.534;-122.308;2022-09-09T02:33:35;100175.03;;;27.28;41.08
69060;BME280;56135;37.534;-122.308;2022-09-09T02:36:03;100179.16;;;27.13;41.82
69060;BME280;56135;37.534;-122.308;2022-09-09T02:38:36;100175.97;;;26.88;42.45
69060;BME280;56135;37.534;-122.308;2022-09-09T02:41:05;100182.16;;;26.69;43.47
69060;BME280;56135;37.534;-122.308;2022-09-09T02:43:34;100181.41;;;26.57;43.40
69060;BME280;56135;37.534;-122.308;2022-09-09T02:46:44;100186.75;;;26.38;43.70
69060;BME280;56135;37.534;-122.308;2022-09-09T02:52:26;100183.25;;;26.16;43.85
69060;BME280;56135;37.534;-122.308;2022-09-09T02:54:45;100191.94;;;25.98;44.57
69060;BME280;56135;37.534;-122.308;2022-09-09T02:57:26;100194.50;;;26.00;44.21
69060;BME280;56135;37.534;-122.308;2022-09-09T02:59:57;100195.78;;;25.75;45.07
69060;BME280;56135;37.534;-122.308;2022-09-09T03:02:26;100198.78;;;25.60;45.22
69060;BME280;56135;37.534;-122.308;2022-09-09T03:04:52;100192.56;;;25.48;45.29
69060;BME280;56135;37.534;-122.308;2022-09-09T03:07:21;100188.06;;;25.38;45.75
69060;BME280;56135;37.534;-122.308;2022-09-09T03:09:47;100194.19;;;25.40;45.63
69060;BME280;56135;37.534;-122.308;2022-09-09T03:12:14;100201.50;;;25.17;46.42
69060;BME280;56135;37.534;-122.308;2022-09-09T03:14:41;100202.13;;;25.09;46.98
69060;BME280;56135;37.534;-122.308;2022-09-09T03:17:12;100200.09;;;24.90;47.17
69060;BME280;56135;37.534;-122.308;2022-09-09T03:19:38;100210.03;;;24.89;47.15
69060;BME280;56135;37.534;-122.308;2022-09-09T03:22:10;100213.88;;;24.75;47.58
69060;BME280;56135;37.534;-122.308;2022-09-09T03:24:37;100219.53;;;24.72;47.34
69060;BME280;56135;37.534;-122.308;2022-09-09T03:27:02;100222.34;;;24.71;47.63
69060;BME280;56135;37.534;-122.308;2022-09-09T03:29:29;100221.63;;;24.69;47.34
69060;BME280;56135;37.534;-122.308;2022-09-09T03:31:54;100218.75;;;24.59;48.23
69060;BME280;56135;37.534;-122.308;2022-09-09T03:34:23;100218.13;;;24.44;48.71
69060;BME280;56135;37.534;-122.308;2022-09-09T03:36:49;100220.72;;;24.34;48.91
69060;BME280;56135;37.534;-122.308;2022-09-09T03:39:16;100218.75;;;24.25;49.00
69060;BME280;56135;37.534;-122.308;2022-09-09T03:41:45;100216.06;;;24.25;48.51
69060;BME280;56135;37.534;-122.308;2022-09-09T03:44:13;100221.66;;;24.22;48.89
69060;BME280;56135;37.534;-122.308;2022-09-09T03:46:58;100223.75;;;24.07;49.90
69060;BME280;56135;37.534;-122.308;2022-09-09T03:49:26;100221.41;;;24.02;50.04
69060;BME280;56135;37.534;-122.308;2022-09-09T03:51:56;100227.41;;;23.94;50.06
69060;BME280;56135;37.534;-122.308;2022-09-09T03:54:25;100240.09;;;23.81;50.60
69060;BME280;56135;37.534;-122.308;2022-09-09T03:56:53;100243.66;;;23.57;51.72
69060;BME280;56135;37.534;-122.308;2022-09-09T03:59:19;100253.94;;;23.52;52.04
69060;BME280;56135;37.534;-122.308;2022-09-09T04:01:47;100255.47;;;23.43;51.61
69060;BME280;56135;37.534;-122.308;2022-09-09T04:04:13;100272.00;;;23.39;51.41
69060;BME280;56135;37.534;-122.308;2022-09-09T04:06:39;100271.34;;;23.35;51.38
69060;BME280;56135;37.534;-122.308;2022-09-09T04:09:05;100276.59;;;23.25;50.98
69060;BME280;56135;37.534;-122.308;2022-09-09T04:11:31;100282.63;;;23.03;51.65
69060;BME280;56135;37.534;-122.308;2022-09-09T04:13:57;100280.53;;;22.82;51.77
69060;BME280;56135;37.534;-122.308;2022-09-09T04:16:23;100284.31;;;22.80;51.59
69060;BME280;56135;37.534;-122.308;2022-09-09T04:18:49;100279.34;;;22.61;51.93
69060;BME280;56135;37.534;-122.308;2022-09-09T04:21:15;100279.81;;;22.55;51.95
69060;BME280;56135;37.534;-122.308;2022-09-09T04:23:43;100274.09;;;22.59;51.47
69060;BME280;56135;37.534;-122.308;2022-09-09T04:26:09;100280.66;;;22.55;51.83
69060;BME280;56135;37.534;-122.308;2022-09-09T04:28:36;100278.47;;;22.35;52.31
69060;BME280;56135;37.534;-122.308;2022-09-09T04:31:08;100272.47;;;22.31;52.15
69060;BME280;56135;37.534;-122.308;2022-09-09T04:33:35;100276.94;;;22.30;51.93
69060;BME280;56135;37.534;-122.308;2022-09-09T04:36:01;100279.97;;;22.26;52.42
69060;BME280;56135;37.534;-122.308;2022-09-09T04:38:27;100290.81;;;22.11;52.52
69060;BME280;56135;37.534;-122.308;2022-09-09T04:40:54;100289.22;;;22.09;52.47
69060;BME280;56135;37.534;-122.308;2022-09-09T04:43:21;100291.47;;;22.02;52.86
69060;BME280;56135;37.534;-122.308;2022-09-09T04:45:50;100298.75;;;21.87;53.10
69060;BME280;56135;37.534;-122.308;2022-09-09T04:48:17;100298.59;;;21.76;53.25
69060;BME280;56135;37.534;-122.308;2022-09-09T04:50:43;100297.84;;;21.74;53.21
69060;BME280;56135;37.534;-122.308;2022-09-09T04:53:10;100308.53;;;21.61;53.69
69060;BME280;56135;37.534;-122.308;2022-09-09T04:55:36;100301.66;;;21.57;53.24
69060;BME280;56135;37.534;-122.308;2022-09-09T04:58:06;100307.13;;;21.55;53.81
69060;BME280;56135;37.534;-122.308;2022-09-09T05:00:34;100306.53;;;21.50;53.60
69060;BME280;56135;37.534;-122.308;2022-09-09T05:03:07;100297.13;;;21.43;53.59
69060;BME280;56135;37.534;-122.308;2022-09-09T05:05:35;100298.31;;;21.39;53.70
69060;BME280;56135;37.534;-122.308;2022-09-09T05:08:02;100299.56;;;21.33;54.40
69060;BME280;56135;37.534;-122.308;2022-09-09T05:10:29;100287.91;;;21.20;53.34
69060;BME280;56135;37.534;-122.308;2022-09-09T05:12:55;100290.03;;;21.14;53.31
69060;BME280;56135;37.534;-122.308;2022-09-09T05:15:21;100289.72;;;21.05;53.36
69060;BME280;56135;37.534;-122.308;2022-09-09T05:17:47;100280.66;;;20.93;53.47
69060;BME280;56135;37.534;-122.308;2022-09-09T05:20:14;100276.34;;;20.90;53.30
69060;BME280;56135;37.534;-122.308;2022-09-09T05:22:40;100275.00;;;20.83;53.42
69060;BME280;56135;37.534;-122.308;2022-09-09T05:25:06;100278.47;;;20.85;53.07
69060;BME280;56135;37.534;-122.308;2022-09-09T05:27:36;100271.09;;;20.74;53.67
69060;BME280;56135;37.534;-122.308;2022-09-09T05:30:03;100273.75;;;20.60;54.22
69060;BME280;56135;37.534;-122.308;2022-09-09T05:32:30;100267.38;;;20.61;53.72
69060;BME280;56135;37.534;-122.308;2022-09-09T05:34:59;100269.78;;;20.51;54.60
69060;BME280;56135;37.534;-122.308;2022-09-09T05:37:27;100269.13;;;20.47;54.27
69060;BME280;56135;37.534;-122.308;2022-09-09T05:39:53;100278.91;;;20.48;54.79
69060;BME280;56135;37.534;-122.308;2022-09-09T05:42:19;100277.63;;;20.40;54.87
69060;BME280;56135;37.534;-122.308;2022-09-09T05:44:46;100279.75;;;20.35;55.40
69060;BME280;56135;37.534;-122.308;2022-09-09T05:47:12;100280.13;;;20.28;55.44
69060;BME280;56135;37.534;-122.308;2022-09-09T05:49:38;100285.59;;;20.27;55.62
69060;BME280;56135;37.534;-122.308;2022-09-09T05:52:04;100275.31;;;20.19;56.17
69060;BME280;56135;37.534;-122.308;2022-09-09T05:54:31;100273.69;;;20.16;56.35
69060;BME280;56135;37.534;-122.308;2022-09-09T05:56:58;100267.03;;;20.08;56.90
69060;BME280;56135;37.534;-122.308;2022-09-09T05:59:24;100263.97;;;19.99;57.14
69060;BME280;56135;37.534;-122.308;2022-09-09T06:01:51;100266.06;;;19.94;57.08
69060;BME280;56135;37.534;-122.308;2022-09-09T06:04:17;100263.75;;;19.88;57.57
69060;BME280;56135;37.534;-122.308;2022-09-09T06:06:43;100272.22;;;19.80;57.61
69060;BME280;56135;37.534;-122.308;2022-09-09T06:09:10;100270.78;;;19.75;58.03
69060;BME280;56135;37.534;-122.308;2022-09-09T06:11:38;100264.88;;;19.68;58.64
69060;BME280;56135;37.534;-122.308;2022-09-09T06:14:05;100268.88;;;19.61;59.77
69060;BME280;56135;37.534;-122.308;2022-09-09T06:16:32;100272.88;;;19.54;60.57
69060;BME280;56135;37.534;-122.308;2022-09-09T06:18:59;100281.00;;;19.52;59.69
69060;BME280;56135;37.534;-122.308;2022-09-09T06:21:34;100277.38;;;19.53;59.74
69060;BME280;56135;37.534;-122.308;2022-09-09T06:24:03;100283.00;;;19.48;59.84
69060;BME280;56135;37.534;-122.308;2022-09-09T06:26:31;100282.41;;;19.43;59.82
69060;BME280;56135;37.534;-122.308;2022-09-09T06:29:00;100280.16;;;19.36;60.64
69060;BME280;56135;37.534;-122.308;2022-09-09T06:31:29;100278.59;;;19.31;60.28
69060;BME280;56135;37.534;-122.308;2022-09-09T06:34:00;100274.47;;;19.26;60.23
69060;BME280;56135;37.534;-122.308;2022-09-09T06:36:32;100278.34;;;19.20;61.12
69060;BME280;56135;37.534;-122.308;2022-09-09T06:38:59;100287.69;;;19.13;61.04
69060;BME280;56135;37.534;-122.308;2022-09-09T06:41:28;100293.97;;;19.12;60.96
69060;BME280;56135;37.534;-122.308;2022-09-09T06:43:55;100284.38;;;19.08;60.60
69060;BME280;56135;37.534;-122.308;2022-09-09T06:46:22;100278.25;;;19.06;62.06
69060;BME280;56135;37.534;-122.308;2022-09-09T06:48:49;100271.50;;;18.98;61.43
69060;BME280;56135;37.534;-122.308;2022-09-09T06:51:20;100267.47;;;18.91;61.97
69060;BME280;56135;37.534;-122.308;2022-09-09T06:53:50;100258.69;;;18.88;61.77
69060;BME280;56135;37.534;-122.308;2022-09-09T06:58:43;100241.31;;;18.79;62.61
69060;BME280;56135;37.534;-122.308;2022-09-09T07:01:16;100237.88;;;18.77;62.52
69060;BME280;56135;37.534;-122.308;2022-09-09T07:03:46;100233.66;;;18.73;62.64
69060;BME280;56135;37.534;-122.308;2022-09-09T07:06:15;100234.75;;;18.68;62.38
69060;BME280;56135;37.534;-122.308;2022-09-09T07:08:49;100225.97;;;18.66;62.58
69060;BME280;56135;37.534;-122.308;2022-09-09T07:11:16;100222.75;;;18.60;63.27
69060;BME280;56135;37.534;-122.308;2022-09-09T07:13:44;100214.03;;;18.56;63.47
69060;BME280;56135;37.534;-122.308;2022-09-09T07:16:13;100215.16;;;18.52;65.20
69060;BME280;56135;37.534;-122.308;2022-09-09T07:18:40;100206.50;;;18.47;65.07
69060;BME280;56135;37.534;-122.308;2022-09-09T07:21:09;100204.94;;;18.43;65.44
69060;BME280;56135;37.534;-122.308;2022-09-09T07:23:35;100201.47;;;18.41;65.25
69060;BME280;56135;37.534;-122.308;2022-09-09T07:26:06;100201.66;;;18.38;65.13
69060;BME280;56135;37.534;-122.308;2022-09-09T07:28:33;100191.06;;;18.36;65.23
69060;BME280;56135;37.534;-122.308;2022-09-09T07:31:01;100196.63;;;18.31;64.86
69060;BME280;56135;37.534;-122.308;2022-09-09T07:33:32;100190.53;;;18.29;64.36
69060;BME280;56135;37.534;-122.308;2022-09-09T07:36:15;100196.03;;;18.26;64.53
69060;BME280;56135;37.534;-122.308;2022-09-09T07:38:45;100197.38;;;18.17;65.74
69060;BME280;56135;37.534;-122.308;2022-09-09T07:41:22;100200.06;;;18.17;65.56
69060;BME280;56135;37.534;-122.308;2022-09-09T07:43:50;100203.75;;;18.15;65.46
69060;BME280;56135;37.534;-122.308;2022-09-09T07:46:18;100203.66;;;18.16;65.14
69060;BME280;56135;37.534;-122.308;2022-09-09T07:48:55;100200.16;;;18.16;64.98
69060;BME280;56135;37.534;-122.308;2022-09-09T07:53:54;100204.34;;;18.04;65.25
69060;BME280;56135;37.534;-122.308;2022-09-09T07:56:21;100205.44;;;18.00;65.31
69060;BME280;56135;37.534;-122.308;2022-09-09T07:58:51;100203.94;;;17.94;65.63
69060;BME280;56135;37.534;-122.308;2022-09-09T08:01:24;100215.00;;;17.87;65.95
69060;BME280;56135;37.534;-122.308;2022-09-09T08:03:59;100213.19;;;17.87;66.39
69060;BME280;56135;37.534;-122.308;2022-09-09T08:06:28;100213.28;;;17.86;65.62
69060;BME280;56135;37.534;-122.308;2022-09-09T08:08:54;100215.31;;;17.80;65.73
69060;BME280;56135;37.534;-122.308;2022-09-09T08:11:22;100212.72;;;17.79;66.89
69060;BME280;56135;37.534;-122.308;2022-09-09T08:13:50;100200.31;;;17.78;65.71
69060;BME280;56135;37.534;-122.308;2022-09-09T08:16:19;100199.19;;;17.82;66.33
69060;BME280;56135;37.534;-122.308;2022-09-09T08:18:50;100193.69;;;17.85;65.91
69060;BME280;56135;37.534;-122.308;2022-09-09T08:21:23;100201.09;;;17.80;66.77
69060;BME280;56135;37.534;-122.308;2022-09-09T08:23:51;100196.63;;;17.80;66.89
69060;BME280;56135;37.534;-122.308;2022-09-09T08:26:26;100193.00;;;17.81;67.53
69060;BME280;56135;37.534;-122.308;2022-09-09T08:28:56;100192.28;;;17.78;67.35
69060;BME280;56135;37.534;-122.308;2022-09-09T08:31:31;100193.41;;;17.74;67.20
69060;BME280;56135;37.534;-122.308;2022-09-09T08:33:59;100194.41;;;17.71;65.75
69060;BME280;56135;37.534;-122.308;2022-09-09T08:36:28;100190.19;;;17.67;65.91
69060;BME280;56135;37.534;-122.308;2022-09-09T08:38:57;100184.19;;;17.62;66.49
69060;BME280;56135;37.534;-122.308;2022-09-09T08:41:31;100178.31;;;17.55;66.42
69060;BME280;56135;37.534;-122.308;2022-09-09T08:49:47;100173.44;;;17.28;68.44
69060;BME280;56135;37.534;-122.308;2022-09-09T08:52:21;100173.56;;;17.25;67.79
69060;BME280;56135;37.534;-122.308;2022-09-09T08:54:49;100172.00;;;17.21;67.31
69060;BME280;56135;37.534;-122.308;2022-09-09T08:57:21;100170.50;;;17.15;67.08
69060;BME280;56135;37.534;-122.308;2022-09-09T08:59:52;100172.59;;;17.09;67.73
69060;BME280;56135;37.534;-122.308;2022-09-09T09:02:32;100177.22;;;17.05;68.65
69060;BME280;56135;37.534;-122.308;2022-09-09T09:07:57;100169.91;;;16.91;69.22
69060;BME280;56135;37.534;-122.308;2022-09-09T09:10:46;100168.41;;;16.84;68.75
69060;BME280;56135;37.534;-122.308;2022-09-09T09:13:26;100172.19;;;16.80;68.77
69060;BME280;56135;37.534;-122.308;2022-09-09T09:16:02;100164.50;;;16.74;68.52
69060;BME280;56135;37.534;-122.308;2022-09-09T09:18:32;100166.44;;;16.70;68.47
69060;BME280;56135;37.534;-122.308;2022-09-09T09:21:20;100160.53;;;16.63;69.11
69060;BME280;56135;37.534;-122.308;2022-09-09T09:23:56;100147.41;;;16.59;69.85
69060;BME280;56135;37.534;-122.308;2022-09-09T09:26:30;100141.41;;;16.54;69.82
69060;BME280;56135;37.534;-122.308;2022-09-09T09:28:58;100141.78;;;16.46;70.29
69060;BME280;56135;37.534;-122.308;2022-09-09T09:31:26;100136.59;;;16.43;69.55
69060;BME280;56135;37.534;-122.308;2022-09-09T09:33:56;100141.19;;;16.39;69.67
69060;BME280;56135;37.534;-122.308;2022-09-09T09:36:33;100139.75;;;16.32;70.56
69060;BME280;56135;37.534;-122.308;2022-09-09T09:39:02;100147.03;;;16.28;70.06
69060;BME280;56135;37.534;-122.308;2022-09-09T09:41:33;100148.09;;;16.24;70.37
69060;BME280;56135;37.534;-122.308;2022-09-09T09:44:26;100146.78;;;16.14;71.75
69060;BME280;56135;37.534;-122.308;2022-09-09T09:46:53;100144.94;;;16.16;70.86
69060;BME280;56135;37.534;-122.308;2022-09-09T09:49:30;100138.22;;;16.07;71.35
69060;BME280;56135;37.534;-122.308;2022-09-09T09:52:02;100130.28;;;16.06;71.73
69060;BME280;56135;37.534;-122.308;2022-09-09T09:54:31;100118.91;;;16.02;71.52
69060;BME280;56135;37.534;-122.308;2022-09-09T09:57:13;100123.38;;;16.01;71.14
69060;BME280;56135;37.534;-122.308;2022-09-09T09:59:40;100113.78;;;15.97;71.16
69060;BME280;56135;37.534;-122.308;2022-09-09T10:02:20;100108.75;;;15.91;71.69
69060;BME280;56135;37.534;-122.308;2022-09-09T10:05:09;100115.06;;;15.89;71.54
69060;BME280;56135;37.534;-122.308;2022-09-09T10:07:38;100113.66;;;15.80;73.95
69060;BME280;56135;37.534;-122.308;2022-09-09T10:10:05;100108.34;;;15.80;74.65
69060;BME280;56135;37.534;-122.308;2022-09-09T10:23:00;100096.59;;;15.65;72.99
69060;BME280;56135;37.534;-122.308;2022-09-09T10:25:38;100099.44;;;15.60;72.94
69060;BME280;56135;37.534;-122.308;2022-09-09T10:31:34;100092.66;;;15.53;73.09
69060;BME280;56135;37.534;-122.308;2022-09-09T10:34:13;100090.19;;;15.48;73.84
69060;BME280;56135;37.534;-122.308;2022-09-09T10:36:48;100089.59;;;15.42;73.67
69060;BME280;56135;37.534;-122.308;2022-09-09T10:42:08;100088.91;;;15.37;74.14
69060;BME280;56135;37.534;-122.308;2022-09-09T10:47:23;100080.56;;;15.25;74.24
69060;BME280;56135;37.534;-122.308;2022-09-09T10:55:35;100081.19;;;15.10;75.01
69060;BME280;56135;37.534;-122.308;2022-09-09T10:58:03;100088.31;;;15.09;74.67
69060;BME280;56135;37.534;-122.308;2022-09-09T11:00:41;100078.66;;;15.07;74.73
69060;BME280;56135;37.534;-122.308;2022-09-09T11:03:21;100075.34;;;15.01;75.79
69060;BME280;56135;37.534;-122.308;2022-09-09T11:05:55;100074.66;;;14.96;75.46
69060;BME280;56135;37.534;-122.308;2022-09-09T11:08:29;100076.56;;;14.93;75.63
69060;BME280;56135;37.534;-122.308;2022-09-09T11:13:42;100075.13;;;14.86;75.77
69060;BME280;56135;37.534;-122.308;2022-09-09T11:19:17;100080.81;;;14.76;76.62
69060;BME280;56135;37.534;-122.308;2022-09-09T11:21:48;100079.22;;;14.72;76.13
69060;BME280;56135;37.534;-122.308;2022-09-09T11:24:22;100073.13;;;14.68;76.18
69060;BME280;56135;37.534;-122.308;2022-09-09T11:27:13;100065.25;;;14.65;76.33
69060;BME280;56135;37.534;-122.308;2022-09-09T11:35:30;100059.56;;;14.52;77.37
69060;BME280;56135;37.534;-122.308;2022-09-09T11:38:19;100050.78;;;14.50;77.02
69060;BME280;56135;37.534;-122.308;2022-09-09T11:40:53;100059.94;;;14.43;77.25
69060;BME280;56135;37.534;-122.308;2022-09-09T11:43:44;100052.94;;;14.41;77.23
69060;BME280;56135;37.534;-122.308;2022-09-09T11:46:14;100054.00;;;14.37;77.55
69060;BME280;56135;37.534;-122.308;2022-09-09T11:48:45;100053.19;;;14.34;77.25
69060;BME280;56135;37.534;-122.308;2022-09-09T11:53:49;100064.00;;;14.30;77.62
69060;BME280;56135;37.534;-122.308;2022-09-09T11:58:56;100058.84;;;14.25;79.41
69060;BME280;56135;37.534;-122.308;2022-09-09T12:07:18;100061.94;;;14.14;78.29
69060;BME280;56135;37.534;-122.308;2022-09-09T12:12:35;100052.53;;;14.06;78.49
69060;BME280;56135;37.534;-122.308;2022-09-09T12:17:52;100049.25;;;13.99;77.98
69060;BME280;56135;37.534;-122.308;2022-09-09T12:31:33;100038.47;;;13.80;78.62
69060;BME280;56135;37.534;-122.308;2022-09-09T12:34:32;100038.63;;;13.75;78.90
69060;BME280;56135;37.534;-122.308;2022-09-09T12:39:45;100023.84;;;13.68;79.73
69060;BME280;56135;37.534;-122.308;2022-09-09T12:42:20;100020.44;;;13.64;80.41
69060;BME280;56135;37.534;-122.308;2022-09-09T12:44:55;100022.31;;;13.62;80.03
69060;BME280;56135;37.534;-122.308;2022-09-09T12:47:29;100023.28;;;13.60;80.07
69060;BME280;56135;37.534;-122.308;2022-09-09T12:50:00;100030.41;;;13.58;80.16
69060;BME280;56135;37.534;-122.308;2022-09-09T12:52:32;100030.53;;;13.55;80.28
69060;BME280;56135;37.534;-122.308;2022-09-09T12:55:03;100022.63;;;13.53;80.37
69060;BME280;56135;37.534;-122.308;2022-09-09T12:57:36;100013.97;;;13.48;80.84
69060;BME280;56135;37.534;-122.308;2022-09-09T13:00:25;100006.94;;;13.47;80.89
69060;BME280;56135;37.534;-122.308;2022-09-09T13:02:53;100009.53;;;13.48;80.83
69060;BME280;56135;37.534;-122.308;2022-09-09T13:05:37;100003.50;;;13.45;81.32
69060;BME280;56135;37.534;-122.308;2022-09-09T13:08:10;100000.00;;;13.43;82.59
69060;BME280;56135;37.534;-122.308;2022-09-09T13:10:50;100010.63;;;13.43;82.49
69060;BME280;56135;37.534;-122.308;2022-09-09T13:13:36;100013.44;;;13.38;82.94
69060;BME280;56135;37.534;-122.308;2022-09-09T13:16:04;100006.34;;;13.39;82.16
69060;BME280;56135;37.534;-122.308;2022-09-09T13:18:35;100014.38;;;13.37;82.03
69060;BME280;56135;37.534;-122.308;2022-09-09T13:21:02;100011.78;;;13.34;81.85
69060;BME280;56135;37.534;-122.308;2022-09-09T13:23:32;100012.75;;;13.31;82.24
69060;BME280;56135;37.534;-122.308;2022-09-09T13:26:04;100016.44;;;13.27;82.40
69060;BME280;56135;37.534;-122.308;2022-09-09T13:28:33;100015.59;;;13.27;82.35
69060;BME280;56135;37.534;-122.308;2022-09-09T13:31:03;100014.81;;;13.23;82.56
69060;BME280;56135;37.534;-122.308;2022-09-09T13:33:35;100022.84;;;13.22;83.02
69060;BME280;56135;37.534;-122.308;2022-09-09T13:36:06;100010.53;;;13.19;83.01
69060;BME280;56135;37.534;-122.308;2022-09-09T13:38:58;100014.22;;;13.15;83.22
69060;BME280;56135;37.534;-122.308;2022-09-09T13:41:31;100029.28;;;13.14;82.63
69060;BME280;56135;37.534;-122.308;2022-09-09T13:43:58;100023.97;;;13.14;83.08
69060;BME280;56135;37.534;-122.308;2022-09-09T13:46:36;100024.00;;;13.13;82.70
69060;BME280;56135;37.534;-122.308;2022-09-09T13:49:18;100025.88;;;13.11;83.63
69060;BME280;56135;37.534;-122.308;2022-09-09T13:51:47;100029.44;;;13.10;83.27
69060;BME280;56135;37.534;-122.308;2022-09-09T13:54:17;100030.34;;;13.09;82.93
69060;BME280;56135;37.534;-122.308;2022-09-09T13:56:44;100035.66;;;13.09;83.47
69060;BME280;56135;37.534;-122.308;2022-09-09T13:59:15;100048.81;;;13.12;83.26
69060;BME280;56135;37.534;-122.308;2022-09-09T14:01:42;100041.72;;;13.12;83.29
69060;BME280;56135;37.534;-122.308;2022-09-09T14:04:09;100054.78;;;13.18;84.15
69060;BME280;56135;37.534;-122.308;2022-09-09T14:06:36;100052.84;;;13.22;84.01
69060;BME280;56135;37.534;-122.308;2022-09-09T14:09:11;100059.00;;;13.24;84.12
69060;BME280;56135;37.534;-122.308;2022-09-09T14:11:38;100058.81;;;13.29;83.45
69060;BME280;56135;37.534;-122.308;2022-09-09T14:14:06;100057.81;;;13.33;83.38
69060;BME280;56135;37.534;-122.308;2022-09-09T14:16:32;100052.31;;;13.39;83.19
69060;BME280;56135;37.534;-122.308;2022-09-09T14:18:58;100055.66;;;13.44;83.13
69060;BME280;56135;37.534;-122.308;2022-09-09T14:21:25;100058.09;;;13.50;83.22
69060;BME280;56135;37.534;-122.308;2022-09-09T14:23:52;100054.25;;;13.59;83.56
69060;BME280;56135;37.534;-122.308;2022-09-09T14:26:22;100058.34;;;13.68;83.62
69060;BME280;56135;37.534;-122.308;2022-09-09T14:28:49;100059.75;;;13.78;84.27
69060;BME280;56135;37.534;-122.308;2022-09-09T14:31:16;100057.69;;;13.87;83.62
69060;BME280;56135;37.534;-122.308;2022-09-09T14:33:44;100052.88;;;13.96;83.00
69060;BME280;56135;37.534;-122.308;2022-09-09T14:36:11;100062.22;;;14.07;82.88
69060;BME280;56135;37.534;-122.308;2022-09-09T14:38:38;100054.66;;;14.20;82.82
69060;BME280;56135;37.534;-122.308;2022-09-09T14:41:12;100053.25;;;14.33;82.15
69060;BME280;56135;37.534;-122.308;2022-09-09T14:43:42;100062.28;;;14.51;81.98
69060;BME280;56135;37.534;-122.308;2022-09-09T14:46:10;100063.50;;;14.66;81.68
69060;BME280;56135;37.534;-122.308;2022-09-09T14:48:36;100065.19;;;14.89;82.39
69060;BME280;56135;37.534;-122.308;2022-09-09T14:51:10;100066.00;;;15.12;81.63
69060;BME280;56135;37.534;-122.308;2022-09-09T14:53:39;100075.53;;;15.38;80.46